Time;durP1;ratioP1;P1;durP2;ratioP2;P2;SDS_P1;SDS_P2;PMS_P1;PMS_P2;Temp;Humidity;BMP_temperature;BMP_pressure;BME280_temperature;BME280_humidity;BME280_pressure;Samples;Min_cycle;Max_cycle;Signal;HPM_P1;HPM_P2
2023/06/27 00:02:23;;;;;;;3.28;1.45;;;;;;;24.79;40.29;101941.91;5024179;28;20178;-71
2023/06/27 00:04:48;;;;;;;2.80;1.55;;;;;;;24.82;40.30;101946.84;5022625;28;20055;-71
2023/06/27 00:07:14;;;;;;;2.70;1.50;;;;;;;24.78;40.39;101951.72;5023206;28;20033;-72
2023/06/27 00:09:40;;;;;;;1.85;1.45;;;;;;;24.77;40.17;101943.91;5021689;28;20042;-71
2023/06/27 00:12:09;;;;;;;2.00;1.45;;;;;;;24.75;40.42;101945.94;5028285;28;20068;-71
2023/06/27 00:14:37;;;;;;;2.35;1.67;;;;;;;24.77;40.36;101943.91;5030167;28;20055;-71
2023/06/27 00:17:10;;;;;;;2.55;1.63;;;;;;;24.76;40.32;101942.25;5025262;28;20060;-71
2023/06/27 00:19:35;;;;;;;4.30;1.52;;;;;;;24.73;40.33;101940.78;5024786;28;20037;-72
2023/06/27 00:22:04;;;;;;;2.65;1.27;;;;;;;24.74;40.40;101945.09;5021572;28;20087;-71
2023/06/27 00:24:29;;;;;;;6.13;1.85;;;;;;;24.73;40.58;101942.63;5023364;28;20064;-68
2023/06/27 00:26:55;;;;;;;4.18;1.63;;;;;;;24.71;40.63;101940.16;5022678;28;20065;-71
2023/06/27 00:29:21;;;;;;;1.40;1.30;;;;;;;24.70;40.62;101939.31;5022084;28;20041;-71
2023/06/27 00:31:46;;;;;;;3.13;1.50;;;;;;;24.68;40.59;101933.34;5025252;28;20052;-71
2023/06/27 00:34:12;;;;;;;3.17;1.73;;;;;;;24.69;40.40;101936.84;5028439;28;20135;-71
2023/06/27 00:36:38;;;;;;;1.55;1.45;;;;;;;24.68;40.81;101937.88;5024608;28;20072;-71
2023/06/27 00:39:04;;;;;;;3.03;1.80;;;;;;;24.67;40.61;101931.72;5026028;28;20095;-71
2023/06/27 00:41:29;;;;;;;1.73;1.55;;;;;;;24.67;40.79;101930.88;5025889;28;20049;-71
2023/06/27 00:43:56;;;;;;;5.28;1.67;;;;;;;24.66;40.73;101929.22;5029024;28;20037;-71
2023/06/27 00:46:34;;;;;;;3.20;1.50;;;;;;;24.63;40.91;101930.44;5027329;28;20033;-72
2023/06/27 00:49:00;;;;;;;3.83;2.10;;;;;;;24.62;40.75;101922.63;5024421;28;20622;-71
2023/06/27 00:51:26;;;;;;;2.63;1.52;;;;;;;24.63;40.90;101927.78;5010444;28;20045;-71
2023/06/27 00:53:51;;;;;;;3.75;1.55;;;;;;;24.62;41.16;101922.63;5024608;28;20041;-71
2023/06/27 00:56:17;;;;;;;1.92;1.35;;;;;;;24.58;41.02;101922.16;5012174;28;20033;-71
2023/06/27 00:58:42;;;;;;;3.90;1.58;;;;;;;24.56;41.15;101921.50;5011055;28;20060;-71
2023/06/27 01:01:09;;;;;;;3.65;1.70;;;;;;;24.59;40.97;101922.97;5025585;28;20044;-71
2023/06/27 01:03:36;;;;;;;3.35;1.50;;;;;;;24.58;40.81;101916.00;5062653;28;20072;-71
2023/06/27 01:06:14;;;;;;;3.00;1.73;;;;;;;24.57;41.14;101925.81;5027459;28;20037;-71
2023/06/27 01:08:51;;;;;;;2.47;1.80;;;;;;;24.56;40.94;101932.16;5026467;28;20220;-71
2023/06/27 01:11:24;;;;;;;2.38;1.60;;;;;;;24.55;41.16;101921.69;5018874;28;20029;-71
2023/06/27 01:13:56;;;;;;;2.35;1.60;;;;;;;24.56;41.14;101929.50;5025169;28;20029;-71
2023/06/27 01:16:26;;;;;;;2.15;1.70;;;;;;;24.54;41.04;101926.19;5026075;28;20038;-71
2023/06/27 01:18:52;;;;;;;3.30;1.65;;;;;;;24.55;41.08;101925.19;5025744;28;20091;-71
2023/06/27 01:21:20;;;;;;;2.47;1.80;;;;;;;24.56;40.99;101924.19;5023391;28;20052;-71
2023/06/27 01:23:55;;;;;;;3.15;1.80;;;;;;;24.54;41.09;101928.88;5005370;28;20100;-71
2023/06/27 01:26:22;;;;;;;3.63;1.60;;;;;;;24.52;41.13;101927.41;5021584;28;20340;-71
2023/06/27 01:28:48;;;;;;;2.08;1.60;;;;;;;24.53;40.96;101924.56;5025666;28;20469;-71
2023/06/27 01:31:28;;;;;;;2.20;1.70;;;;;;;24.53;41.11;101923.72;5030523;28;20053;-71
2023/06/27 01:33:59;;;;;;;;;;;;;;;24.49;41.27;101925.94;5025630;28;20587;-71
2023/06/27 01:36:35;;;;;;;3.25;1.70;;;;;;;24.47;41.30;101921.81;5024740;28;19929;-71
2023/06/27 01:39:12;;;;;;;2.42;1.75;;;;;;;24.44;41.21;101908.88;5040440;28;20056;-71
2023/06/27 01:41:43;;;;;;;5.28;1.92;;;;;;;24.48;41.28;101916.31;5010448;28;20052;-71
2023/06/27 01:44:10;;;;;;;2.95;1.98;;;;;;;24.47;41.17;101917.31;5043547;28;20458;-71
2023/06/27 01:46:36;;;;;;;1.70;1.55;;;;;;;24.49;41.05;101920.63;5025569;28;20068;-72
2023/06/27 01:49:03;;;;;;;2.05;1.60;;;;;;;24.47;41.17;101919.97;5024263;28;20053;-72
2023/06/27 01:51:29;;;;;;;2.22;1.80;;;;;;;24.46;41.27;101917.50;5023674;28;20120;-72
2023/06/27 01:53:55;;;;;;;3.15;1.65;;;;;;;24.44;41.34;101915.03;5029050;28;20121;-71
2023/06/27 01:56:21;;;;;;;2.75;1.80;;;;;;;24.42;41.32;101925.03;5023132;28;20049;-71
2023/06/27 01:58:47;;;;;;;1.83;1.67;;;;;;;24.42;41.25;101919.72;5024232;28;20060;-71
2023/06/27 02:01:13;;;;;;;2.70;1.60;;;;;;;24.41;41.31;101918.84;5026646;28;20037;-71
2023/06/27 02:03:38;;;;;;;1.75;1.60;;;;;;;24.43;41.29;101915.22;5026507;28;20103;-72
2023/06/27 02:06:04;;;;;;;3.05;1.50;;;;;;;24.42;41.32;101917.06;5024054;28;20492;-72
2023/06/27 02:08:30;;;;;;;1.60;1.50;;;;;;;24.42;41.50;101914.38;5042871;28;20463;-71
2023/06/27 02:10:55;;;;;;;2.88;1.73;;;;;;;24.40;41.46;101916.38;5027589;28;20050;-72
2023/06/27 02:13:21;;;;;;;2.35;1.77;;;;;;;24.38;41.34;101915.75;5024335;28;20041;-72
2023/06/27 02:15:46;;;;;;;1.75;1.58;;;;;;;24.37;41.37;101914.91;5029082;28;20044;-71
2023/06/27 02:18:13;;;;;;;3.67;1.95;;;;;;;24.38;41.53;101910.41;5024730;28;20038;-71
2023/06/27 02:20:38;;;;;;;2.97;1.98;;;;;;;24.38;41.49;101915.75;5023467;28;20030;-72
2023/06/27 02:23:04;;;;;;;1.88;1.50;;;;;;;24.37;41.49;101914.09;5025211;28;20404;-72
2023/06/27 02:25:29;;;;;;;3.28;1.80;;;;;;;24.36;41.43;101907.94;5028273;28;20045;-71
2023/06/27 02:27:54;;;;;;;2.28;1.50;;;;;;;24.38;41.54;101907.75;5027169;28;20038;-73
2023/06/27 02:30:20;;;;;;;3.03;1.75;;;;;;;24.35;41.55;101908.13;5027285;28;20048;-72
2023/06/27 02:32:46;;;;;;;2.35;1.75;;;;;;;24.32;41.65;101911.97;5026192;28;20107;-71
2023/06/27 02:35:15;;;;;;;2.50;1.83;;;;;;;24.30;41.71;101900.69;5035912;28;20033;-71
2023/06/27 02:37:41;;;;;;;3.92;1.90;;;;;;;24.32;41.52;101901.34;5023795;28;20128;-71
2023/06/27 02:40:07;;;;;;;3.80;1.70;;;;;;;24.31;41.52;101905.00;5023261;28;20107;-71
2023/06/27 02:42:32;;;;;;;2.75;2.10;;;;;;;24.32;41.65;101900.50;5024872;28;20652;-71
2023/06/27 02:44:58;;;;;;;2.45;1.88;;;;;;;24.30;41.60;101897.22;5023910;28;20071;-71
2023/06/27 02:47:23;;;;;;;2.45;1.50;;;;;;;24.30;41.75;101902.53;5025810;28;20480;-72
2023/06/27 02:49:49;;;;;;;3.05;1.83;;;;;;;24.29;41.76;101901.72;5027475;28;20052;-71
2023/06/27 02:52:14;;;;;;;2.25;1.73;;;;;;;24.29;41.61;101903.53;5025356;28;20083;-71
2023/06/27 02:54:41;;;;;;;4.57;1.80;;;;;;;24.31;41.64;101909.50;5021415;28;20079;-71
2023/06/27 02:57:06;;;;;;;2.85;1.80;;;;;;;24.31;41.75;101906.84;5024989;28;20438;-71
2023/06/27 02:59:33;;;;;;;1.60;1.35;;;;;;;24.30;41.69;101905.19;5027198;28;20460;-71
2023/06/27 03:02:00;;;;;;;2.60;1.80;;;;;;;24.28;41.66;101904.53;5021206;28;20033;-71
2023/06/27 03:04:26;;;;;;;3.67;2.22;;;;;;;24.29;41.64;101909.69;5008560;28;20438;-72
2023/06/27 03:06:52;;;;;;;2.80;1.63;;;;;;;24.24;41.70;101903.25;5027392;28;20044;-71
2023/06/27 03:09:18;;;;;;;2.80;1.83;;;;;;;24.25;41.53;101911.03;5026360;28;20048;-71
2023/06/27 03:11:44;;;;;;;4.00;2.25;;;;;;;24.24;41.74;101912.06;5015760;28;20678;-71
2023/06/27 03:14:12;;;;;;;2.58;1.73;;;;;;;24.20;41.72;101907.25;5024899;28;20115;-71
2023/06/27 03:16:38;;;;;;;1.63;1.50;;;;;;;24.16;41.83;101906.81;5027661;28;20722;-71
2023/06/27 03:19:03;;;;;;;2.15;1.67;;;;;;;24.19;42.10;101911.75;5055325;28;20072;-71
2023/06/27 03:21:30;;;;;;;2.85;1.70;;;;;;;24.21;41.78;101915.06;5023414;28;20053;-71
2023/06/27 03:23:56;;;;;;;2.95;1.70;;;;;;;24.19;41.75;101906.44;5023869;28;20415;-71
2023/06/27 03:26:27;;;;;;;3.90;2.05;;;;;;;24.20;41.84;101915.25;5005231;28;20037;-71
2023/06/27 03:28:54;;;;;;;3.38;1.65;;;;;;;24.17;41.83;101911.13;5024154;28;20105;-71
2023/06/27 03:31:20;;;;;;;4.07;2.47;;;;;;;24.19;41.80;101909.09;5022423;28;20034;-71
2023/06/27 03:33:46;;;;;;;3.53;1.88;;;;;;;24.17;41.92;101916.44;5024902;28;20041;-71
2023/06/27 03:36:12;;;;;;;4.60;2.10;;;;;;;24.21;41.77;101916.88;5024292;28;20032;-71
2023/06/27 03:38:37;;;;;;;2.10;1.77;;;;;;;24.18;41.66;101912.75;5040449;28;20049;-71
2023/06/27 03:41:03;;;;;;;2.50;1.73;;;;;;;24.19;41.87;101919.75;5006075;28;20048;-71
2023/06/27 03:43:30;;;;;;;3.53;2.17;;;;;;;24.16;41.84;101911.31;5055128;28;20041;-72
2023/06/27 03:45:55;;;;;;;2.80;1.77;;;;;;;24.15;41.88;101909.66;5023157;28;20220;-71
2023/06/27 03:48:21;;;;;;;2.45;1.60;;;;;;;24.15;41.44;101917.63;5025437;28;20041;-71
2023/06/27 03:50:46;;;;;;;3.85;2.00;;;;;;;24.18;41.78;101915.44;5022732;28;20056;-71
2023/06/27 03:53:12;;;;;;;2.20;2.00;;;;;;;24.15;41.74;101907.81;5027408;28;20215;-71
2023/06/27 03:55:40;;;;;;;2.40;1.70;;;;;;;24.19;41.68;101918.91;5034110;28;20044;-71
2023/06/27 03:58:07;;;;;;;3.10;1.83;;;;;;;24.19;41.66;101913.59;5032839;28;21136;-72
2023/06/27 04:00:32;;;;;;;3.13;1.95;;;;;;;24.16;41.65;101903.31;5027757;28;20057;-71
2023/06/27 04:02:58;;;;;;;2.08;1.50;;;;;;;24.13;41.87;101917.81;5028177;28;20049;-71
2023/06/27 04:05:24;;;;;;;2.05;1.70;;;;;;;24.11;41.88;101911.84;5039327;28;20765;-71
2023/06/27 04:07:50;;;;;;;3.45;2.00;;;;;;;24.14;41.84;101913.31;5028061;28;20029;-71
2023/06/27 04:10:18;;;;;;;3.05;1.90;;;;;;;24.09;41.75;101906.72;5028352;28;20061;-71
2023/06/27 04:12:44;;;;;;;2.15;1.70;;;;;;;24.11;41.69;101909.19;5022975;28;20044;-71
2023/06/27 04:15:09;;;;;;;2.00;1.80;;;;;;;24.10;41.80;101908.38;5028458;28;20488;-72
2023/06/27 04:17:35;;;;;;;3.30;2.13;;;;;;;24.11;41.76;101906.53;5011279;28;20071;-71
2023/06/27 04:20:01;;;;;;;2.78;1.70;;;;;;;24.11;41.93;101909.19;5029082;28;20479;-72
2023/06/27 04:22:27;;;;;;;2.63;1.80;;;;;;;24.10;41.84;101905.72;5032176;28;20402;-71
2023/06/27 04:24:52;;;;;;;2.42;1.50;;;;;;;24.09;42.00;101903.22;5054901;28;20048;-71
2023/06/27 04:27:18;;;;;;;2.00;1.70;;;;;;;24.06;41.72;101899.09;5021527;28;20044;-71
2023/06/27 04:29:44;;;;;;;3.55;1.77;;;;;;;24.09;41.90;101898.72;5024432;28;20262;-71
2023/06/27 04:32:09;;;;;;;2.88;2.35;;;;;;;24.04;41.73;101895.78;5025826;28;20746;-71
2023/06/27 04:34:36;;;;;;;3.58;1.85;;;;;;;24.08;42.13;101904.25;5021427;28;20048;-71
2023/06/27 04:37:03;;;;;;;2.67;1.73;;;;;;;24.07;42.10;101903.41;5040965;28;20038;-71
2023/06/27 04:39:29;;;;;;;3.83;1.70;;;;;;;24.10;41.99;101900.38;5022374;28;20021;-71
2023/06/27 04:41:56;;;;;;;3.22;1.77;;;;;;;24.07;42.14;101892.78;5022377;28;20665;-71
2023/06/27 04:44:22;;;;;;;1.88;1.50;;;;;;;24.05;42.19;101899.25;5056683;28;20074;-71
2023/06/27 04:46:48;;;;;;;2.15;1.92;;;;;;;24.02;42.20;101895.13;5024621;28;20037;-71
2023/06/27 04:49:13;;;;;;;2.40;1.65;;;;;;;24.07;42.29;101905.25;5051756;28;20042;-71
2023/06/27 04:51:39;;;;;;;2.60;1.90;;;;;;;24.05;42.24;101900.09;5020723;28;20033;-71
2023/06/27 04:54:04;;;;;;;2.25;1.70;;;;;;;24.05;42.10;101902.75;5022813;28;20464;-71
2023/06/27 04:56:30;;;;;;;2.03;1.80;;;;;;;24.07;42.21;101902.59;5032066;28;20037;-71
2023/06/27 04:58:56;;;;;;;4.30;1.92;;;;;;;24.04;42.13;101902.94;5031938;28;21990;-71
2023/06/27 05:01:21;;;;;;;2.15;1.65;;;;;;;24.06;42.16;101899.09;5030595;28;20032;-71
2023/06/27 05:03:47;;;;;;;3.05;1.70;;;;;;;24.07;42.13;101906.06;5031475;28;20570;-71
2023/06/27 05:06:12;;;;;;;2.15;1.95;;;;;;;24.07;42.23;101905.25;5037358;28;20033;-71
2023/06/27 05:08:38;;;;;;;2.85;1.80;;;;;;;24.07;42.03;101908.72;5026098;28;20060;-71
2023/06/27 05:11:04;;;;;;;2.05;1.60;;;;;;;24.06;42.03;101919.56;5026944;28;20068;-71
2023/06/27 05:13:30;;;;;;;3.35;2.00;;;;;;;24.06;42.10;101922.22;5035536;28;20116;-71
2023/06/27 05:15:55;;;;;;;2.20;1.75;;;;;;;24.02;42.05;101905.78;5027886;28;20549;-71
2023/06/27 05:18:22;;;;;;;1.60;1.50;;;;;;;24.07;41.97;101915.91;5030569;28;20033;-71
2023/06/27 05:20:47;;;;;;;2.47;1.90;;;;;;;24.06;41.95;101909.75;5026951;28;20054;-71
2023/06/27 05:23:13;;;;;;;2.47;1.67;;;;;;;24.07;41.95;101906.06;5024413;28;20044;-71
2023/06/27 05:25:39;;;;;;;4.25;1.85;;;;;;;24.04;41.84;101909.06;5027864;28;20534;-71
2023/06/27 05:28:04;;;;;;;7.38;1.92;;;;;;;24.05;41.96;101896.59;5028554;28;20132;-71
2023/06/27 05:30:30;;;;;;;3.25;1.85;;;;;;;24.07;41.91;101908.72;5026415;28;20041;-71
2023/06/27 05:33:01;;;;;;;2.72;1.73;;;;;;;24.07;41.85;101907.91;5027483;28;20688;-71
2023/06/27 05:35:27;;;;;;;2.88;1.60;;;;;;;24.07;42.01;101907.91;5027348;28;20087;-71
2023/06/27 05:37:52;;;;;;;4.07;1.75;;;;;;;24.08;41.91;101907.72;5028029;28;20423;-71
2023/06/27 05:40:18;;;;;;;3.63;1.75;;;;;;;24.07;41.85;101911.41;5033054;28;20049;-71
2023/06/27 05:42:43;;;;;;;3.90;1.90;;;;;;;24.06;41.97;101907.09;5026293;28;20395;-68
2023/06/27 05:45:10;;;;;;;2.70;1.67;;;;;;;24.08;41.99;101907.72;5030891;28;20048;-72
2023/06/27 05:47:35;;;;;;;3.42;1.70;;;;;;;24.10;42.00;101920.84;5030441;28;20029;-72
2023/06/27 05:50:01;;;;;;;4.22;1.92;;;;;;;24.07;42.17;101913.22;5024232;28;20045;-70
2023/06/27 05:52:29;;;;;;;5.50;2.10;;;;;;;24.07;42.04;101905.25;5024445;28;20041;-70
2023/06/27 05:54:54;;;;;;;2.83;1.85;;;;;;;24.02;42.08;101891.63;5027464;28;20068;-69
2023/06/27 05:57:20;;;;;;;2.17;1.60;;;;;;;24.07;42.03;101906.06;5022780;28;20038;-71
2023/06/27 05:59:46;;;;;;;4.45;2.17;;;;;;;24.08;42.01;101899.75;5024588;28;20545;-69
2023/06/27 06:02:11;;;;;;;4.93;2.13;;;;;;;24.05;42.08;101908.06;5019684;28;21788;-70
2023/06/27 06:04:37;;;;;;;4.70;2.00;;;;;;;24.01;42.16;101911.28;5025138;28;20049;-67
2023/06/27 06:07:03;;;;;;;3.80;2.08;;;;;;;23.85;42.37;101912.25;5023488;28;20033;-70
2023/06/27 06:09:30;;;;;;;3.53;2.05;;;;;;;23.88;42.16;101906.59;5026185;28;20053;-70
2023/06/27 06:11:58;;;;;;;4.30;2.10;;;;;;;23.99;42.26;101918.63;4984374;28;20103;-75
2023/06/27 06:14:24;;;;;;;6.57;2.55;;;;;;;24.06;41.91;101904.44;5028722;28;20169;-72
2023/06/27 06:16:49;;;;;;;5.15;2.30;;;;;;;24.14;42.03;101915.97;5027929;28;20507;-74
2023/06/27 06:19:15;;;;;;;3.78;1.85;;;;;;;24.18;41.89;101914.59;5035692;28;20037;-74
2023/06/27 06:21:41;;;;;;;6.97;2.17;;;;;;;24.17;41.84;101903.13;5026939;28;20052;-74
2023/06/27 06:24:10;;;;;;;3.38;1.60;;;;;;;24.24;41.88;101909.41;5022376;28;20146;-73
2023/06/27 06:26:40;;;;;;;5.27;1.80;;;;;;;24.36;41.74;101917.75;5012509;28;20213;-65
2023/06/27 06:29:13;;;;;;;4.93;1.88;;;;;;;24.47;41.17;101922.63;5028124;28;20472;-70
2023/06/27 06:31:40;;;;;;;3.90;1.83;;;;;;;24.39;41.25;101915.56;4998608;28;20145;-64
2023/06/27 06:34:05;;;;;;;5.25;1.83;;;;;;;24.42;41.39;101919.72;5020841;28;20048;-64
2023/06/27 06:36:32;;;;;;;4.60;1.70;;;;;;;24.46;41.29;101921.00;5010455;28;21148;-64
2023/06/27 06:38:58;;;;;;;2.78;1.35;;;;;;;24.51;41.32;101925.75;5022606;28;20053;-64
2023/06/27 06:41:24;;;;;;;2.63;1.55;;;;;;;24.51;40.96;101928.41;4987528;28;20037;-69
2023/06/27 06:43:50;;;;;;;5.40;1.83;;;;;;;24.30;40.71;101927.31;5022636;28;20103;-68
2023/06/27 06:46:15;;;;;;;8.30;1.88;;;;;;;24.22;40.57;101926.53;4996795;28;20036;-69
2023/06/27 06:48:41;;;;;;;4.97;1.88;;;;;;;24.17;40.46;101931.56;5022149;28;20112;-69
2023/06/27 06:51:07;;;;;;;4.88;1.80;;;;;;;24.13;40.75;101925.81;4988563;28;20052;-67
2023/06/27 06:53:32;;;;;;;5.85;2.00;;;;;;;24.16;40.54;101922.78;5011293;28;20045;-69
2023/06/27 06:55:58;;;;;;;3.95;1.50;;;;;;;24.18;40.63;101922.59;5021883;28;20041;-70
2023/06/27 06:58:23;;;;;;;4.22;1.83;;;;;;;24.24;40.45;101920.03;4990077;28;21954;-67
2023/06/27 07:00:49;;;;;;;7.03;1.55;;;;;;;24.19;40.34;101922.41;5023509;28;20037;-68
2023/06/27 07:03:15;;;;;;;4.70;1.88;;;;;;;24.26;40.23;101923.34;4988294;28;20328;-68
2023/06/27 07:05:41;;;;;;;4.20;1.60;;;;;;;24.34;40.19;101927.78;5024477;28;20029;-68
2023/06/27 07:08:07;;;;;;;6.05;1.73;;;;;;;24.32;40.41;101927.97;4993973;28;20161;-69
2023/06/27 07:10:34;;;;;;;4.47;1.75;;;;;;;24.28;40.20;101923.97;5024635;28;20025;-70
2023/06/27 07:13:04;;;;;;;3.55;1.70;;;;;;;24.30;40.17;101921.16;5004797;28;20103;-69
2023/06/27 07:15:30;;;;;;;5.47;1.70;;;;;;;24.34;40.16;101933.91;5026764;28;20120;-69
2023/06/27 07:17:55;;;;;;;6.00;1.70;;;;;;;24.33;40.03;101928.78;5022143;28;20354;-64
2023/06/27 07:20:22;;;;;;;3.55;1.55;;;;;;;24.32;40.13;101927.13;5024584;28;20049;-64
2023/06/27 07:23:03;;;;;;;2.90;1.65;;;;;;;24.37;40.08;101920.25;5019291;28;20049;-66
2023/06/27 07:25:32;;;;;;;3.75;1.42;;;;;;;24.47;39.93;101925.31;5020318;28;20081;-68
2023/06/27 07:28:00;;;;;;;2.97;2.17;;;;;;;24.51;39.86;101923.09;5004783;28;20068;-71
2023/06/27 07:30:29;;;;;;;3.25;1.35;;;;;;;24.54;39.98;101931.53;5022313;28;20459;-68
2023/06/27 07:33:06;;;;;;;1.52;1.38;;;;;;;24.56;39.96;101923.34;5000575;28;20152;-67
2023/06/27 07:35:35;;;;;;;;;;;;;;;24.58;39.82;101926.66;5029346;28;20046;-66
2023/06/27 07:38:06;;;;;;;4.45;1.60;;;;;;;24.57;40.19;101925.81;4998429;28;19940;-64
2023/06/27 07:40:31;;;;;;;4.25;1.50;;;;;;;24.56;39.92;101918.03;5031494;28;20037;-65
2023/06/27 07:42:57;;;;;;;1.83;1.15;;;;;;;24.61;39.95;101918.31;5017899;28;20037;-65
2023/06/27 07:45:23;;;;;;;2.58;1.30;;;;;;;24.64;39.88;101920.59;5028885;28;20045;-66
2023/06/27 07:47:48;;;;;;;3.97;1.67;;;;;;;24.65;39.96;101922.25;4994468;28;20037;-65
2023/06/27 07:50:14;;;;;;;5.90;1.50;;;;;;;24.70;40.01;101922.53;5052653;28;20036;-65
2023/06/27 07:52:39;;;;;;;3.53;1.50;;;;;;;24.71;39.55;101919.66;4990549;28;20065;-66
2023/06/27 07:55:06;;;;;;;4.40;1.60;;;;;;;24.72;39.26;101915.16;5030371;28;20050;-65
2023/06/27 07:57:32;;;;;;;5.28;1.38;;;;;;;24.80;39.24;101908.94;4980504;28;20526;-65
2023/06/27 07:59:57;;;;;;;2.80;1.50;;;;;;;24.82;39.33;101913.06;5011434;28;20431;-66
2023/06/27 08:02:23;;;;;;;2.38;1.60;;;;;;;24.84;39.02;101911.03;5027978;28;20725;-65
2023/06/27 08:05:07;;;;;;;2.72;1.30;;;;;;;24.84;39.15;101918.19;5021557;28;20044;-67
2023/06/27 08:07:33;;;;;;;1.45;1.10;;;;;;;24.81;39.06;101922.06;5025735;28;20038;-65
2023/06/27 08:10:04;;;;;;;4.88;1.35;;;;;;;24.73;39.22;101911.50;5004124;28;20041;-69
2023/06/27 08:12:30;;;;;;;2.95;1.20;;;;;;;24.85;39.11;101926.00;5014693;28;21065;-68
2023/06/27 08:15:04;;;;;;;3.65;1.30;;;;;;;24.84;38.97;101908.34;5012234;28;20133;-65
2023/06/27 08:17:30;;;;;;;4.28;1.58;;;;;;;24.88;39.06;101917.63;5029970;28;20061;-68
2023/06/27 08:20:00;;;;;;;3.58;1.50;;;;;;;24.89;39.05;101921.09;5005527;28;20044;-65
2023/06/27 08:22:26;;;;;;;3.65;1.60;;;;;;;24.90;39.09;101918.25;5020350;28;20045;-65
2023/06/27 08:24:51;;;;;;;2.70;1.25;;;;;;;24.93;39.03;101923.19;5015928;28;20239;-68
2023/06/27 08:27:17;;;;;;;3.65;1.50;;;;;;;24.94;38.99;101914.19;5024214;28;20484;-68
2023/06/27 08:29:42;;;;;;;3.78;1.15;;;;;;;24.95;38.50;101918.50;5031512;28;20041;-68
2023/06/27 08:32:08;;;;;;;4.07;1.35;;;;;;;24.97;38.72;101913.03;4986032;28;20045;-65
2023/06/27 08:34:38;;;;;;;3.85;1.45;;;;;;;24.97;38.75;101910.34;5025727;28;20045;-65
2023/06/27 08:37:04;;;;;;;4.45;1.65;;;;;;;24.95;38.92;101915.84;4989773;28;20523;-65
2023/06/27 08:39:29;;;;;;;3.47;1.38;;;;;;;24.95;39.23;101921.16;5026208;28;20038;-64
2023/06/27 08:41:56;;;;;;;2.97;1.55;;;;;;;24.94;38.85;101924.03;4988370;28;20411;-65
2023/06/27 08:44:22;;;;;;;2.30;1.20;;;;;;;24.93;38.83;101925.03;5021948;28;20319;-66
2023/06/27 08:46:48;;;;;;;3.30;1.42;;;;;;;24.90;39.00;101923.59;4984069;28;20037;-68
2023/06/27 08:49:26;;;;;;;3.50;1.30;;;;;;;24.90;38.94;101918.25;5023679;28;20069;-68
2023/06/27 08:51:55;;;;;;;3.25;1.30;;;;;;;24.91;38.76;101916.41;5018124;28;20041;-69
2023/06/27 08:54:43;;;;;;;3.58;1.20;;;;;;;24.92;38.92;101923.41;5026853;28;20553;-69
2023/06/27 08:57:09;;;;;;;3.35;1.30;;;;;;;24.92;38.67;101916.22;4987421;28;20305;-67
2023/06/27 08:59:37;;;;;;;2.58;1.27;;;;;;;24.93;38.92;101920.53;5027789;28;20041;-67
2023/06/27 09:02:05;;;;;;;7.43;1.52;;;;;;;24.88;38.96;101908.81;4989612;28;20156;-65
2023/06/27 09:04:34;;;;;;;5.45;1.30;;;;;;;24.94;38.79;101921.38;5026457;28;20041;-65
2023/06/27 09:07:01;;;;;;;3.03;1.53;;;;;;;24.91;38.50;101916.41;4994887;28;20109;-65
2023/06/27 09:09:28;;;;;;;3.83;1.35;;;;;;;24.91;38.97;101917.25;5019944;28;20499;-65
2023/06/27 09:11:54;;;;;;;1.98;1.10;;;;;;;24.95;38.57;101912.34;5028449;28;20045;-65
2023/06/27 09:14:19;;;;;;;2.17;0.98;;;;;;;24.96;38.42;101898.88;5031234;28;20971;-68
2023/06/27 09:16:45;;;;;;;4.78;1.17;;;;;;;24.96;38.59;101898.88;5026860;28;20037;-69
2023/06/27 09:19:11;;;;;;;3.85;1.42;;;;;;;24.98;38.33;101904.84;4987436;28;20701;-68
2023/06/27 09:21:38;;;;;;;3.55;1.00;;;;;;;25.01;38.66;101909.00;5028399;28;20055;-69
2023/06/27 09:24:07;;;;;;;5.60;1.20;;;;;;;25.00;38.34;101905.50;4999955;28;20925;-68
2023/06/27 09:26:33;;;;;;;1.35;1.00;;;;;;;25.00;38.19;101894.03;5020596;28;20034;-66
2023/06/27 09:29:00;;;;;;;3.85;1.35;;;;;;;24.97;38.22;101889.88;5003312;28;20087;-69
2023/06/27 09:31:30;;;;;;;2.30;1.30;;;;;;;25.02;38.03;101901.81;5015992;28;20423;-64
2023/06/27 09:34:11;;;;;;;2.28;1.40;;;;;;;25.03;38.38;101895.47;5030704;28;20045;-65
2023/06/27 09:36:40;;;;;;;2.85;1.08;;;;;;;25.03;38.35;101909.63;4993495;28;20037;-64
2023/06/27 09:39:07;;;;;;;3.10;1.20;;;;;;;25.00;38.36;101899.34;5024999;28;20728;-65
2023/06/27 09:41:46;;;;;;;5.90;1.50;;;;;;;25.05;38.36;101902.25;4986268;28;20053;-64
2023/06/27 09:44:12;;;;;;;2.88;1.52;;;;;;;25.04;38.68;101903.28;5026990;28;20057;-64
2023/06/27 09:46:38;;;;;;;2.20;1.05;;;;;;;25.05;38.45;101904.09;4988272;28;20035;-67
2023/06/27 09:49:08;;;;;;;3.22;1.23;;;;;;;25.05;38.40;101906.78;5031583;28;20112;-68
2023/06/27 09:51:33;;;;;;;3.30;1.25;;;;;;;25.05;38.47;101904.94;5019665;28;20362;-65
2023/06/27 09:53:59;;;;;;;2.60;1.35;;;;;;;25.05;38.45;101918.25;5030554;28;20045;-65
2023/06/27 09:56:30;;;;;;;1.92;1.20;;;;;;;25.05;38.57;101906.78;4982860;28;20491;-65
2023/06/27 09:58:56;;;;;;;2.38;1.70;;;;;;;25.03;38.96;101912.28;5024629;28;20061;-67
2023/06/27 10:01:25;;;;;;;1.48;1.15;;;;;;;24.92;39.11;101916.22;4990566;28;21020;-67
2023/06/27 10:03:50;;;;;;;2.50;1.20;;;;;;;24.88;38.84;101922.13;5030193;28;20049;-66
2023/06/27 10:06:16;;;;;;;5.10;1.50;;;;;;;24.86;38.91;101919.66;4985370;28;20435;-67
2023/06/27 10:08:42;;;;;;;4.72;1.55;;;;;;;24.82;38.72;101918.38;5017785;28;20043;-67
2023/06/27 10:11:07;;;;;;;3.70;1.33;;;;;;;24.76;38.77;101921.75;5030714;28;20092;-67
2023/06/27 10:13:34;;;;;;;5.13;1.50;;;;;;;24.75;38.49;101913.97;4990374;28;20130;-67
2023/06/27 10:16:00;;;;;;;4.00;1.33;;;;;;;24.75;38.54;101920.13;5023289;28;20057;-68
2023/06/27 10:18:26;;;;;;;6.32;1.60;;;;;;;24.71;38.57;101918.84;4986900;28;20686;-67
2023/06/27 10:20:55;;;;;;;4.60;1.88;;;;;;;24.69;38.09;101921.69;5028500;28;20041;-67
2023/06/27 10:23:21;;;;;;;2.47;1.63;;;;;;;24.69;38.17;101919.03;4992325;28;20120;-66
2023/06/27 10:25:47;;;;;;;2.13;1.20;;;;;;;24.73;37.50;101914.16;5025702;28;20061;-66
2023/06/27 10:28:14;;;;;;;5.95;1.70;;;;;;;24.71;37.37;101921.50;4993604;28;20164;-68
2023/06/27 10:30:46;;;;;;;1.80;1.20;;;;;;;24.65;37.82;101907.09;5018186;28;20048;-66
2023/06/27 10:33:22;;;;;;;3.17;1.40;;;;;;;24.64;38.07;101913.44;5025053;28;20060;-67
2023/06/27 10:35:50;;;;;;;4.07;1.50;;;;;;;24.66;37.86;101916.75;4996718;28;20064;-65
2023/06/27 10:38:18;;;;;;;2.83;1.30;;;;;;;24.66;37.79;101918.59;5036976;28;20083;-64
2023/06/27 10:41:03;;;;;;;5.50;2.00;;;;;;;24.67;37.71;101913.06;4984101;28;20052;-65
2023/06/27 10:44:02;;;;;;;3.42;1.48;;;;;;;24.68;38.12;101912.06;5024938;28;20030;-64
2023/06/27 10:46:27;;;;;;;5.60;1.53;;;;;;;24.66;38.03;101914.09;5039209;28;20095;-66
2023/06/27 10:49:01;;;;;;;3.55;1.90;;;;;;;24.68;38.02;101903.25;5015003;28;20037;-67
2023/06/27 10:51:34;;;;;;;4.35;1.38;;;;;;;24.69;37.63;101915.53;5022516;28;20025;-68
2023/06/27 10:54:09;;;;;;;4.35;2.17;;;;;;;24.77;38.11;101906.59;4987715;28;20029;-65
2023/06/27 10:56:40;;;;;;;4.47;1.20;;;;;;;24.85;38.19;101899.34;5022717;28;20037;-64
2023/06/27 10:59:13;;;;;;;5.05;1.45;;;;;;;24.94;38.25;101903.53;4994045;28;20045;-65
2023/06/27 11:02:02;;;;;;;3.13;1.38;;;;;;;25.01;38.19;101914.31;5022802;28;20043;-65
2023/06/27 11:04:42;;;;;;;1.95;1.02;;;;;;;25.07;37.90;101912.72;4976991;28;20088;-64
2023/06/27 11:07:13;;;;;;;4.18;1.48;;;;;;;25.09;37.95;101908.84;5016063;28;20037;-64
2023/06/27 11:09:53;;;;;;;7.07;1.52;;;;;;;25.11;38.21;101917.50;5025063;28;20045;-64
2023/06/27 11:12:21;;;;;;;3.50;1.52;;;;;;;25.13;38.00;101915.47;4995448;28;20037;-67
2023/06/27 11:14:48;;;;;;;5.78;1.70;;;;;;;25.17;37.84;101916.75;5023838;28;20617;-66
2023/06/27 11:17:17;;;;;;;3.00;1.20;;;;;;;25.18;37.82;101915.75;4989346;28;20041;-64
2023/06/27 11:19:43;;;;;;;3.42;1.65;;;;;;;25.18;38.27;101913.06;5020759;28;20825;-64
2023/06/27 11:22:09;;;;;;;4.13;1.40;;;;;;;25.20;38.09;101921.72;4988686;28;20037;-66
2023/06/27 11:24:35;;;;;;;5.53;1.20;;;;;;;25.22;37.94;101919.66;5022698;28;20048;-67
2023/06/27 11:27:05;;;;;;;5.75;1.35;;;;;;;25.24;38.05;101920.31;4991557;28;20025;-67
2023/06/27 11:29:31;;;;;;;3.67;1.50;;;;;;;25.26;37.88;101914.78;5015064;28;20049;-66